Time;durP1;ratioP1;P1;durP2;ratioP2;P2;SDS_P1;SDS_P2;PMS_P1;PMS_P2;Temp;Humidity;BMP_temperature;BMP_pressure;BME280_temperature;BME280_humidity;BME280_pressure;Samples;Min_cycle;Max_cycle;Signal;HPM_P1;HPM_P2
2021/06/25 00:01:29;;;;;;;;;;;13.00;99.90;;;;;;5045417;28;19929;-80
2021/06/25 00:03:56;;;;;;;;;;;13.00;99.90;;;;;;5062692;28;19928;-81
2021/06/25 00:06:22;;;;;;;;;;;13.00;99.90;;;;;;5062691;28;19928;-80
2021/06/25 00:08:49;;;;;;;;;;;12.90;99.90;;;;;;5063056;28;19928;-80
2021/06/25 00:11:16;;;;;;;;;;;12.90;99.90;;;;;;5060203;28;20888;-81
2021/06/25 00:13:42;;;;;;;;;;;12.80;99.90;;;;;;5059565;28;19925;-80
2021/06/25 00:16:09;;;;;;;;;;;12.80;99.90;;;;;;5061293;28;19929;-80
2021/06/25 00:18:36;;;;;;;;;;;12.70;99.90;;;;;;5064628;28;19928;-80
2021/06/25 00:21:02;;;;;;;;;;;12.70;99.90;;;;;;5062350;28;19929;-81
2021/06/25 00:23:29;;;;;;;;;;;12.70;99.90;;;;;;5065893;28;20386;-81
2021/06/25 00:25:56;;;;;;;;;;;12.70;99.90;;;;;;5060486;28;21323;-80
2021/06/25 00:28:23;;;;;;;;;;;12.60;99.90;;;;;;5060598;28;19928;-80
2021/06/25 00:30:50;;;;;;;;;;;12.60;99.90;;;;;;5062565;28;19928;-80
2021/06/25 00:33:16;;;;;;;;;;;12.50;99.90;;;;;;5059303;28;19929;-81
2021/06/25 00:35:43;;;;;;;;;;;12.50;99.90;;;;;;5059784;28;19932;-80
2021/06/25 00:38:10;;;;;;;;;;;12.50;99.90;;;;;;5060774;28;19967;-80
2021/06/25 00:40:37;;;;;;;;;;;12.40;99.90;;;;;;5060085;28;21407;-80
2021/06/25 00:43:03;;;;;;;;;;;12.40;99.90;;;;;;5062752;28;19928;-80
2021/06/25 00:45:30;;;;;;;;;;;12.40;99.90;;;;;;5062018;28;20657;-80
2021/06/25 00:47:57;;;;;;;;;;;12.40;99.90;;;;;;5060804;28;19928;-80
2021/06/25 00:50:26;;;;;;;;;;;12.30;99.90;;;;;;5063099;28;19997;-80
2021/06/25 00:52:54;;;;;;;;;;;12.30;99.90;;;;;;5060285;28;19950;-81
2021/06/25 00:55:22;;;;;;;;;;;12.30;99.90;;;;;;5062319;28;19929;-81
2021/06/25 00:57:48;;;;;;;;;;;12.30;99.90;;;;;;5063169;28;20024;-80
2021/06/25 01:00:16;;;;;;;;;;;12.30;99.90;;;;;;5060747;28;19939;-79
2021/06/25 01:02:43;;;;;;;;;;;12.30;99.90;;;;;;5060084;28;19936;-80
2021/06/25 01:05:12;;;;;;;;;;;12.30;99.90;;;;;;5067347;28;19938;-80
2021/06/25 01:07:39;;;;;;;;;;;12.30;99.90;;;;;;5076758;28;19928;-80
2021/06/25 01:10:07;;;;;;;;;;;12.30;99.90;;;;;;5073949;28;19929;-80
2021/06/25 01:12:34;;;;;;;;;;;12.20;99.90;;;;;;5059745;28;20657;-80
2021/06/25 01:15:00;;;;;;;;;;;12.20;99.90;;;;;;5059398;28;20376;-80
2021/06/25 01:17:31;;;;;;;;;;;12.20;99.90;;;;;;5066198;28;19932;-80
2021/06/25 01:19:59;;;;;;;;;;;12.20;99.90;;;;;;5060445;28;19935;-79
2021/06/25 01:22:36;;;;;;;;;;;12.10;99.90;;;;;;5041477;28;19929;-80
2021/06/25 01:25:06;;;;;;;;;;;12.10;99.90;;;;;;5059972;28;19928;-80
2021/06/25 01:27:33;;;;;;;;;;;12.10;99.90;;;;;;5060608;28;20315;-80
2021/06/25 01:30:00;;;;;;;;;;;12.10;99.90;;;;;;5060314;28;19968;-80
2021/06/25 01:32:27;;;;;;;;;;;12.00;99.90;;;;;;5059619;28;19934;-80
2021/06/25 01:34:53;;;;;;;;;;;12.00;99.90;;;;;;5059933;28;21900;-80
2021/06/25 01:37:20;;;;;;;;;;;12.00;99.90;;;;;;5060903;28;19948;-80
2021/06/25 01:39:48;;;;;;;;;;;12.00;99.90;;;;;;5062541;28;19939;-80
2021/06/25 01:42:15;;;;;;;;;;;11.90;99.90;;;;;;5061317;28;19925;-80
2021/06/25 01:44:42;;;;;;;;;;;11.90;99.90;;;;;;5058909;28;19932;-80
2021/06/25 01:47:08;;;;;;;;;;;11.80;99.90;;;;;;5059179;28;19924;-80
2021/06/25 01:49:37;;;;;;;;;;;11.80;99.90;;;;;;5062628;28;19990;-79
2021/06/25 01:52:04;;;;;;;;;;;11.70;99.90;;;;;;5062506;28;19987;-80
2021/06/25 01:54:31;;;;;;;;;;;11.70;99.90;;;;;;5060462;28;19929;-79
2021/06/25 01:56:57;;;;;;;;;;;11.70;99.90;;;;;;5060277;28;19995;-79
2021/06/25 01:59:24;;;;;;;;;;;11.60;99.90;;;;;;5043455;28;19935;-80
2021/06/25 02:01:50;;;;;;;;;;;11.70;99.90;;;;;;5061954;28;19928;-81
2021/06/25 02:04:17;;;;;;;;;;;11.60;99.90;;;;;;5046805;28;19929;-80
2021/06/25 02:06:44;;;;;;;;;;;11.60;99.90;;;;;;5045698;28;20011;-80
2021/06/25 02:09:10;;;;;;;;;;;11.60;99.90;;;;;;5046748;28;19934;-80
2021/06/25 02:11:37;;;;;;;;;;;11.60;99.90;;;;;;5046374;28;19988;-81
2021/06/25 02:14:04;;;;;;;;;;;11.50;99.90;;;;;;5044971;28;19935;-80
2021/06/25 02:16:31;;;;;;;;;;;11.50;99.90;;;;;;5049042;28;19928;-80
2021/06/25 02:18:57;;;;;;;;;;;11.40;99.90;;;;;;5066184;28;20250;-80
2021/06/25 02:21:24;;;;;;;;;;;11.40;99.90;;;;;;5053465;28;19928;-80
2021/06/25 02:23:51;;;;;;;;;;;11.40;99.90;;;;;;5043659;28;20364;-80
2021/06/25 02:26:17;;;;;;;;;;;11.40;99.90;;;;;;5046545;28;20443;-80
2021/06/25 02:28:44;;;;;;;;;;;11.30;99.90;;;;;;5065792;28;20390;-80
2021/06/25 02:31:11;;;;;;;;;;;11.30;99.90;;;;;;5061306;28;20036;-80
2021/06/25 02:33:38;;;;;;;;;;;11.20;99.90;;;;;;5048135;28;19928;-80
2021/06/25 02:36:05;;;;;;;;;;;11.20;99.90;;;;;;5046337;28;19933;-80
2021/06/25 02:38:31;;;;;;;;;;;11.20;99.90;;;;;;5050255;28;19928;-80
2021/06/25 02:40:58;;;;;;;;;;;11.20;99.90;;;;;;5045196;28;19951;-80
2021/06/25 02:43:25;;;;;;;;;;;11.20;99.90;;;;;;5046231;28;19925;-80
2021/06/25 02:45:51;;;;;;;;;;;11.10;99.90;;;;;;5037611;28;19929;-80
2021/06/25 02:48:18;;;;;;;;;;;11.10;99.90;;;;;;5046928;28;20302;-79
2021/06/25 02:50:45;;;;;;;;;;;11.10;99.90;;;;;;5062434;28;19935;-79
2021/06/25 02:53:11;;;;;;;;;;;11.10;99.90;;;;;;5044217;28;20768;-79
2021/06/25 02:55:50;;;;;;;;;;;11.10;99.90;;;;;;5062298;28;19933;-79
2021/06/25 02:58:20;;;;;;;;;;;11.10;99.90;;;;;;5062082;28;19935;-79
2021/06/25 03:00:48;;;;;;;;;;;11.10;99.90;;;;;;5067904;28;20402;-79
2021/06/25 03:03:14;;;;;;;;;;;11.10;99.90;;;;;;5060689;28;20434;-79
2021/06/25 03:05:41;;;;;;;;;;;11.10;99.90;;;;;;5061825;28;19929;-79
2021/06/25 03:08:08;;;;;;;;;;;11.10;99.90;;;;;;5062099;28;20030;-79
2021/06/25 03:10:35;;;;;;;;;;;11.10;99.90;;;;;;5061831;28;19928;-79
2021/06/25 03:13:01;;;;;;;;;;;11.10;99.90;;;;;;5060592;28;19925;-79
2021/06/25 03:15:28;;;;;;;;;;;11.10;99.90;;;;;;5062071;28;20465;-79
2021/06/25 03:17:55;;;;;;;;;;;11.20;99.90;;;;;;5067330;28;20303;-79
2021/06/25 03:20:21;;;;;;;;;;;11.20;99.90;;;;;;5061454;28;19960;-79
2021/06/25 03:22:48;;;;;;;;;;;11.20;99.90;;;;;;5062321;28;21280;-80
2021/06/25 03:25:15;;;;;;;;;;;11.20;99.90;;;;;;5077155;28;20368;-79
2021/06/25 03:27:42;;;;;;;;;;;11.20;99.90;;;;;;5065755;28;19928;-80
2021/06/25 03:30:09;;;;;;;;;;;11.30;99.90;;;;;;5061584;28;19965;-80
2021/06/25 03:32:36;;;;;;;;;;;11.40;99.90;;;;;;5060895;28;19943;-80
2021/06/25 03:35:04;;;;;;;;;;;11.40;99.90;;;;;;5063835;28;19959;-79
2021/06/25 03:37:30;;;;;;;;;;;11.50;99.90;;;;;;5062397;28;20011;-80
2021/06/25 03:39:57;;;;;;;;;;;11.70;99.90;;;;;;5062281;28;19929;-81
2021/06/25 03:42:24;;;;;;;;;;;11.80;99.90;;;;;;5063428;28;19958;-79
2021/06/25 03:44:51;;;;;;;;;;;11.90;99.90;;;;;;5070033;28;19928;-80
2021/06/25 03:47:18;;;;;;;;;;;12.00;99.90;;;;;;5060874;28;20442;-80
2021/06/25 03:49:44;;;;;;;;;;;12.20;99.90;;;;;;5064562;28;19928;-80
2021/06/25 03:52:11;;;;;;;;;;;12.30;99.90;;;;;;5039856;28;20020;-80
2021/06/25 03:54:37;;;;;;;;;;;12.50;99.90;;;;;;5034643;28;19928;-80
2021/06/25 03:57:04;;;;;;;;;;;12.60;99.90;;;;;;5042926;28;19935;-79
2021/06/25 03:59:31;;;;;;;;;;;12.70;99.90;;;;;;5042492;28;19933;-80
2021/06/25 04:01:57;;;;;;;;;;;12.90;99.90;;;;;;5041526;28;25034;-79
2021/06/25 04:04:24;;;;;;;;;;;12.90;99.90;;;;;;5043206;28;19929;-80
2021/06/25 04:06:51;;;;;;;;;;;13.00;99.90;;;;;;5041218;28;19996;-80
2021/06/25 04:09:17;;;;;;;;;;;13.10;99.90;;;;;;5041189;28;19935;-80
2021/06/25 04:11:44;;;;;;;;;;;13.10;99.90;;;;;;5044010;28;19976;-80
2021/06/25 04:14:11;;;;;;;;;;;13.20;99.90;;;;;;5059191;28;19928;-80
2021/06/25 04:16:37;;;;;;;;;;;13.20;99.90;;;;;;5061782;28;21056;-79
2021/06/25 04:19:04;;;;;;;;;;;13.20;99.90;;;;;;5059784;28;20015;-79
2021/06/25 04:21:30;;;;;;;;;;;13.20;99.90;;;;;;5067601;28;19936;-79
2021/06/25 04:23:57;;;;;;;;;;;13.20;99.90;;;;;;5060080;28;20011;-79
2021/06/25 04:26:24;;;;;;;;;;;13.30;99.90;;;;;;5060459;28;19935;-79
2021/06/25 04:28:50;;;;;;;;;;;13.30;99.90;;;;;;5059300;28;19928;-79
2021/06/25 04:31:17;;;;;;;;;;;13.30;99.90;;;;;;5058945;28;19928;-79
2021/06/25 04:33:44;;;;;;;;;;;13.30;99.90;;;;;;5060727;28;19964;-80
2021/06/25 04:36:10;;;;;;;;;;;13.30;99.90;;;;;;5059634;28;20407;-79
2021/06/25 04:38:37;;;;;;;;;;;13.40;99.90;;;;;;5064194;28;19929;-79
2021/06/25 04:41:04;;;;;;;;;;;13.30;99.90;;;;;;5062874;28;19935;-80
2021/06/25 04:43:30;;;;;;;;;;;13.40;99.90;;;;;;5060563;28;20442;-80
2021/06/25 04:45:58;;;;;;;;;;;13.50;99.90;;;;;;5061744;28;19929;-80
2021/06/25 04:48:26;;;;;;;;;;;13.50;99.90;;;;;;5059925;28;20023;-80
2021/06/25 04:50:52;;;;;;;;;;;13.50;99.90;;;;;;5060784;28;19932;-80
2021/06/25 04:53:19;;;;;;;;;;;13.70;99.90;;;;;;5068231;28;20011;-80
2021/06/25 04:55:46;;;;;;;;;;;13.70;99.90;;;;;;5063070;28;19932;-80
2021/06/25 04:58:13;;;;;;;;;;;13.70;99.90;;;;;;5061829;28;19988;-80
2021/06/25 05:00:40;;;;;;;;;;;13.80;99.90;;;;;;5058893;28;19928;-79
2021/06/25 05:03:07;;;;;;;;;;;13.80;99.90;;;;;;5060604;28;20008;-79
2021/06/25 05:05:34;;;;;;;;;;;13.90;99.90;;;;;;5064920;28;19951;-80
2021/06/25 05:08:01;;;;;;;;;;;14.00;99.90;;;;;;5062942;28;20321;-80
2021/06/25 05:10:28;;;;;;;;;;;14.00;99.90;;;;;;5065583;28;19928;-80
2021/06/25 05:12:55;;;;;;;;;;;14.10;99.90;;;;;;5058772;28;20291;-79
2021/06/25 05:15:22;;;;;;;;;;;14.30;99.90;;;;;;5064393;28;19936;-80
2021/06/25 05:17:50;;;;;;;;;;;14.40;99.90;;;;;;5059888;28;21036;-80
2021/06/25 05:20:36;;;;;;;;;;;14.60;99.90;;;;;;5069832;28;19935;-80
2021/06/25 05:23:03;;;;;;;;;;;14.80;99.90;;;;;;5058470;28;19934;-79
2021/06/25 05:25:30;;;;;;;;;;;14.90;99.90;;;;;;5058082;28;19935;-80
2021/06/25 05:27:56;;;;;;;;;;;15.00;99.90;;;;;;5057063;28;19928;-80
2021/06/25 05:30:23;;;;;;;;;;;15.00;99.90;;;;;;5060014;28;20668;-80
2021/06/25 05:32:50;;;;;;;;;;;15.00;99.90;;;;;;5064121;28;19929;-80
2021/06/25 05:35:16;;;;;;;;;;;15.00;99.90;;;;;;5060070;28;20416;-80
2021/06/25 05:37:43;;;;;;;;;;;15.10;99.90;;;;;;5061385;28;20231;-80
2021/06/25 05:40:13;;;;;;;;;;;15.10;99.90;;;;;;5058537;28;19933;-81
2021/06/25 05:42:39;;;;;;;;;;;15.20;99.90;;;;;;5061919;28;19931;-80
2021/06/25 05:45:06;;;;;;;;;;;15.30;99.90;;;;;;5062128;28;20393;-80
2021/06/25 05:47:33;;;;;;;;;;;15.40;99.90;;;;;;5054307;28;19967;-81
2021/06/25 05:49:59;;;;;;;;;;;15.40;99.90;;;;;;5063922;28;19928;-80
2021/06/25 05:52:26;;;;;;;;;;;15.50;99.90;;;;;;5065510;28;19939;-80
2021/06/25 05:54:53;;;;;;;;;;;15.50;99.90;;;;;;5065624;28;19951;-80
2021/06/25 05:57:19;;;;;;;;;;;15.50;99.90;;;;;;5061143;28;19928;-80
2021/06/25 05:59:46;;;;;;;;;;;15.60;99.90;;;;;;5062613;28;19943;-80
2021/06/25 06:02:12;;;;;;;;;;;15.70;99.90;;;;;;5064319;28;19939;-80
2021/06/25 06:04:39;;;;;;;;;;;15.90;99.90;;;;;;5064220;28;19988;-80
2021/06/25 06:07:06;;;;;;;;;;;16.10;99.90;;;;;;5061343;28;19935;-81
2021/06/25 06:09:33;;;;;;;;;;;16.30;99.90;;;;;;5055236;28;19928;-80
2021/06/25 06:12:00;;;;;;;;;;;16.40;99.90;;;;;;5068804;28;20047;-80
2021/06/25 06:14:26;;;;;;;;;;;16.50;99.90;;;;;;5062059;28;19939;-80
2021/06/25 06:16:53;;;;;;;;;;;16.60;99.90;;;;;;5063291;28;19959;-80
2021/06/25 06:19:20;;;;;;;;;;;16.60;99.90;;;;;;5062955;28;20015;-81
2021/06/25 06:33:33;;;;;;;;;;;16.80;99.90;;;;;;5075330;28;19929;-80
2021/06/25 06:35:39;;;;;;;;;;;16.80;99.90;;;;;;5061566;28;20058;-80
2021/06/25 06:38:06;;;;;;;;;;;16.90;99.90;;;;;;5079573;28;19932;-80
2021/06/25 06:40:33;;;;;;;;;;;17.00;99.90;;;;;;5065515;28;19964;-80
2021/06/25 06:43:00;;;;;;;;;;;17.10;99.90;;;;;;5080222;28;20023;-80
2021/06/25 06:45:27;;;;;;;;;;;17.20;99.90;;;;;;5062517;28;19936;-79
2021/06/25 06:47:54;;;;;;;;;;;17.30;99.90;;;;;;5065418;28;19928;-81
2021/06/25 06:50:20;;;;;;;;;;;17.40;99.90;;;;;;5061847;28;20366;-81
2021/06/25 06:52:49;;;;;;;;;;;17.30;99.90;;;;;;5060483;28;20299;-80
2021/06/25 06:55:19;;;;;;;;;;;17.40;99.90;;;;;;5063794;28;19928;-79
2021/06/25 06:57:45;;;;;;;;;;;17.40;99.90;;;;;;5063268;28;19928;-79
2021/06/25 07:00:12;;;;;;;;;;;17.30;99.90;;;;;;5065465;28;19929;-81
2021/06/25 07:02:43;;;;;;;;;;;17.30;99.90;;;;;;5063123;28;19938;-80
2021/06/25 07:05:10;;;;;;;;;;;17.40;99.90;;;;;;5062280;28;19929;-80
2021/06/25 07:07:37;;;;;;;;;;;17.50;99.90;;;;;;5059420;28;20308;-79
2021/06/25 07:10:05;;;;;;;;;;;17.70;99.90;;;;;;5057173;28;19928;-79
2021/06/25 07:12:32;;;;;;;;;;;17.70;99.90;;;;;;5063522;28;19933;-80
2021/06/25 07:14:58;;;;;;;;;;;17.80;99.90;;;;;;5063047;28;19934;-80
2021/06/25 07:17:25;;;;;;;;;;;17.90;99.90;;;;;;5059652;28;19936;-80
2021/06/25 07:19:51;;;;;;;;;;;18.20;99.90;;;;;;5060477;28;19929;-80
2021/06/25 07:22:18;;;;;;;;;;;18.30;99.90;;;;;;5059805;28;19929;-80
2021/06/25 07:24:45;;;;;;;;;;;18.50;99.90;;;;;;5063285;28;19972;-81
2021/06/25 07:27:11;;;;;;;;;;;18.50;99.90;;;;;;5059702;28;20267;-80
2021/06/25 07:29:38;;;;;;;;;;;18.40;99.90;;;;;;5059417;28;20321;-80
2021/06/25 07:32:05;;;;;;;;;;;18.40;99.90;;;;;;5062280;28;19935;-80
2021/06/25 07:34:32;;;;;;;;;;;18.40;99.90;;;;;;5060961;28;19975;-80
2021/06/25 07:37:03;;;;;;;;;;;18.30;99.90;;;;;;5061030;28;20399;-80
2021/06/25 07:39:30;;;;;;;;;;;18.10;99.90;;;;;;5058966;28;20268;-80
2021/06/25 07:41:56;;;;;;;;;;;18.00;99.90;;;;;;5058812;28;20016;-80
2021/06/25 07:44:23;;;;;;;;;;;18.00;99.90;;;;;;5059995;28;21536;-80
2021/06/25 07:46:49;;;;;;;;;;;18.00;99.90;;;;;;5060034;28;19939;-80
2021/06/25 07:49:16;;;;;;;;;;;18.10;99.90;;;;;;5061175;28;19932;-80
2021/06/25 07:51:43;;;;;;;;;;;18.10;99.90;;;;;;5059902;28;19933;-80
2021/06/25 07:54:10;;;;;;;;;;;18.10;99.90;;;;;;5062423;28;19995;-80
2021/06/25 07:56:37;;;;;;;;;;;18.10;99.90;;;;;;5064553;28;19939;-81
2021/06/25 07:59:03;;;;;;;;;;;18.20;99.90;;;;;;5065838;28;19997;-80
2021/06/25 08:01:30;;;;;;;;;;;18.20;99.90;;;;;;5059155;28;19975;-80
2021/06/25 08:03:59;;;;;;;;;;;18.20;99.90;;;;;;5058565;28;20376;-80
2021/06/25 08:06:28;;;;;;;;;;;18.20;99.90;;;;;;5063230;28;19932;-80
2021/06/25 08:08:54;;;;;;;;;;;18.30;99.90;;;;;;5061457;28;19935;-81
2021/06/25 08:11:21;;;;;;;;;;;18.50;99.90;;;;;;5062757;28;19932;-80
2021/06/25 08:13:47;;;;;;;;;;;18.60;99.90;;;;;;5063593;28;19928;-80
2021/06/25 08:16:14;;;;;;;;;;;18.70;99.90;;;;;;5059958;28;19928;-80
2021/06/25 08:18:41;;;;;;;;;;;18.80;99.90;;;;;;5050047;28;19928;-80
2021/06/25 08:21:07;;;;;;;;;;;18.80;99.90;;;;;;5062431;28;20296;-80
2021/06/25 08:23:34;;;;;;;;;;;18.80;99.90;;;;;;5073344;28;19929;-81
2021/06/25 08:26:01;;;;;;;;;;;18.90;99.90;;;;;;5061074;28;19928;-80
2021/06/25 08:28:27;;;;;;;;;;;19.10;99.90;;;;;;5058593;28;19929;-80
2021/06/25 08:30:54;;;;;;;;;;;19.20;99.90;;;;;;5057985;28;20479;-80
2021/06/25 08:33:22;;;;;;;;;;;19.40;99.90;;;;;;5042958;28;19935;-80
2021/06/25 08:35:49;;;;;;;;;;;19.60;99.90;;;;;;5048837;28;19932;-80
2021/06/25 08:38:15;;;;;;;;;;;19.80;99.90;;;;;;5042561;28;19928;-80
2021/06/25 08:40:42;;;;;;;;;;;20.10;99.90;;;;;;5041139;28;20019;-80
2021/06/25 08:43:08;;;;;;;;;;;20.30;99.90;;;;;;5049814;28;19940;-80
2021/06/25 08:45:35;;;;;;;;;;;20.50;99.90;;;;;;5042554;28;19976;-80
2021/06/25 08:48:02;;;;;;;;;;;20.60;99.90;;;;;;5042834;28;19950;-81
2021/06/25 08:50:35;;;;;;;;;;;20.80;99.90;;;;;;5058502;28;19932;-81
2021/06/25 08:53:02;;;;;;;;;;;21.00;99.10;;;;;;5060233;28;19928;-80
2021/06/25 08:55:29;;;;;;;;;;;21.20;99.60;;;;;;5057870;28;22342;-80
2021/06/25 08:57:56;;;;;;;;;;;21.30;99.60;;;;;;5062135;28;20355;-80
2021/06/25 09:00:23;;;;;;;;;;;21.40;98.90;;;;;;5054205;28;19928;-82
2021/06/25 09:02:50;;;;;;;;;;;21.60;98.20;;;;;;5057541;28;19928;-81
2021/06/25 09:05:22;;;;;;;;;;;21.60;99.30;;;;;;5062086;28;19928;-80
2021/06/25 09:07:50;;;;;;;;;;;21.70;97.70;;;;;;5057986;28;19929;-81
2021/06/25 09:10:28;;;;;;;;;;;21.50;97.90;;;;;;5066281;28;19925;-80
2021/06/25 09:13:10;;;;;;;;;;;21.40;98.70;;;;;;5059053;28;19939;-81
2021/06/25 09:15:41;;;;;;;;;;;21.50;99.40;;;;;;5061859;28;19935;-81
2021/06/25 09:18:11;;;;;;;;;;;21.60;98.90;;;;;;5059980;28;19928;-81
2021/06/25 09:20:45;;;;;;;;;;;21.70;99.00;;;;;;5061882;28;20364;-81
2021/06/25 09:23:15;;;;;;;;;;;21.70;98.00;;;;;;5060949;28;24124;-81
2021/06/25 09:25:48;;;;;;;;;;;21.80;99.50;;;;;;5075956;28;20048;-80
2021/06/25 09:28:19;;;;;;;;;;;22.00;99.20;;;;;;5059399;28;19934;-81
2021/06/25 09:30:46;;;;;;;;;;;22.30;98.10;;;;;;5059719;28;19979;-81
2021/06/25 09:33:14;;;;;;;;;;;22.30;98.70;;;;;;5063565;28;19956;-81
2021/06/25 09:35:41;;;;;;;;;;;22.40;97.80;;;;;;5056621;28;20371;-80
2021/06/25 09:38:08;;;;;;;;;;;22.50;98.20;;;;;;5052952;28;19928;-81
2021/06/25 09:40:37;;;;;;;;;;;22.60;98.10;;;;;;5059865;28;19935;-80
2021/06/25 09:43:08;;;;;;;;;;;22.60;98.20;;;;;;5061140;28;19935;-80
2021/06/25 09:45:46;;;;;;;;;;;22.60;98.40;;;;;;5063637;28;19967;-82
2021/06/25 09:48:12;;;;;;;;;;;22.70;98.50;;;;;;5077294;28;19951;-81
2021/06/25 09:50:39;;;;;;;;;;;23.10;98.20;;;;;;5059544;28;20363;-81
2021/06/25 09:53:07;;;;;;;;;;;23.10;97.60;;;;;;5068735;28;19928;-81
2021/06/25 09:55:51;;;;;;;;;;;23.10;98.00;;;;;;5061562;28;20035;-81
2021/06/25 10:03:41;;;;;;;;;;;23.10;98.10;;;;;;5062826;28;19928;-81
2021/06/25 10:06:11;;;;;;;;;;;23.20;97.30;;;;;;5061576;28;19929;-81
2021/06/25 10:08:38;;;;;;;;;;;23.20;97.50;;;;;;5062213;28;19936;-81
2021/06/25 10:11:05;;;;;;;;;;;23.10;96.70;;;;;;5060095;28;19928;-81
2021/06/25 10:13:34;;;;;;;;;;;23.00;98.70;;;;;;5062061;28;20019;-81
2021/06/25 10:16:01;;;;;;;;;;;23.00;97.20;;;;;;5062877;28;19929;-81
2021/06/25 10:18:29;;;;;;;;;;;23.10;97.80;;;;;;5062248;28;19936;-81
2021/06/25 10:20:56;;;;;;;;;;;23.40;97.70;;;;;;5062712;28;19928;-81
2021/06/25 10:23:28;;;;;;;;;;;23.50;97.30;;;;;;5071095;28;19939;-81
2021/06/25 10:25:55;;;;;;;;;;;23.60;98.00;;;;;;5084181;28;19933;-81
2021/06/25 10:28:22;;;;;;;;;;;23.70;97.10;;;;;;5068791;28;19932;-81
2021/06/25 10:30:49;;;;;;;;;;;23.60;97.00;;;;;;5065836;28;19932;-81
2021/06/25 10:33:23;;;;;;;;;;;23.60;96.90;;;;;;5068198;28;19925;-81
2021/06/25 10:35:49;;;;;;;;;;;23.60;97.40;;;;;;5073123;28;19984;-81
2021/06/25 10:38:19;;;;;;;;;;;23.50;97.00;;;;;;5067194;28;20023;-81
2021/06/25 10:40:59;;;;;;;;;;;23.40;97.90;;;;;;5066698;28;19983;-81
2021/06/25 10:43:38;;;;;;;;;;;23.60;98.30;;;;;;5062674;28;19924;-81
2021/06/25 10:46:05;;;;;;;;;;;23.80;98.10;;;;;;5083490;28;19959;-81
2021/06/25 10:48:35;;;;;;;;;;;24.30;98.10;;;;;;5064218;28;20031;-81
2021/06/25 10:51:21;;;;;;;;;;;24.70;96.10;;;;;;5065725;28;19929;-81
2021/06/25 10:54:10;;;;;;;;;;;24.70;96.10;;;;;;5063804;28;20388;-81
2021/06/25 10:56:38;;;;;;;;;;;24.60;95.70;;;;;;5060818;28;19947;-81
2021/06/25 10:59:18;;;;;;;;;;;24.50;96.20;;;;;;5056376;28;19929;-81
2021/06/25 11:01:49;;;;;;;;;;;24.60;96.30;;;;;;5064853;28;19929;-81
2021/06/25 11:04:35;;;;;;;;;;;24.80;96.50;;;;;;5065076;28;19933;-81
2021/06/25 11:07:06;;;;;;;;;;;25.00;95.20;;;;;;5062632;28;19929;-81
2021/06/25 11:09:44;;;;;;;;;;;25.00;94.70;;;;;;5077568;28;20430;-81
2021/06/25 11:12:15;;;;;;;;;;;25.00;95.10;;;;;;5064052;28;19972;-81
2021/06/25 11:14:41;;;;;;;;;;;25.30;95.10;;;;;;5062710;28;19928;-81
2021/06/25 11:17:08;;;;;;;;;;;25.50;95.50;;;;;;5069323;28;19928;-82
2021/06/25 11:19:36;;;;;;;;;;;25.80;95.00;;;;;;5056827;28;20645;-81
2021/06/25 11:22:03;;;;;;;;;;;26.00;93.70;;;;;;5068076;28;19936;-81
2021/06/25 11:24:50;;;;;;;;;;;26.10;93.50;;;;;;5052803;28;19928;-81
2021/06/25 11:27:16;;;;;;;;;;;26.20;92.60;;;;;;5060638;28;19928;-81
2021/06/25 11:29:44;;;;;;;;;;;26.20;92.40;;;;;;5060094;28;20402;-81
2021/06/25 11:32:12;;;;;;;;;;;26.00;92.50;;;;;;5060594;28;19929;-81
2021/06/25 11:34:38;;;;;;;;;;;25.80;92.90;;;;;;5058601;28;19929;-81
2021/06/25 11:37:05;;;;;;;;;;;25.70;93.10;;;;;;5066427;28;20270;-81
2021/06/25 11:39:35;;;;;;;;;;;25.80;93.20;;;;;;5065418;28;19929;-81
2021/06/25 11:42:06;;;;;;;;;;;26.00;92.40;;;;;;5059080;28;20015;-82
2021/06/25 11:44:38;;;;;;;;;;;26.10;92.30;;;;;;5063761;28;19935;-81
2021/06/25 11:47:10;;;;;;;;;;;26.10;93.00;;;;;;5060461;28;19935;-82
2021/06/25 11:49:42;;;;;;;;;;;26.00;92.00;;;;;;5064147;28;19928;-81
2021/06/25 11:52:19;;;;;;;;;;;26.00;92.00;;;;;;5061521;28;19925;-81
2021/06/25 11:54:48;;;;;;;;;;;25.80;91.90;;;;;;5061935;28;19978;-81
2021/06/25 11:57:16;;;;;;;;;;;25.60;92.70;;;;;;5062541;28;19928;-81
2021/06/25 11:59:54;;;;;;;;;;;25.50;92.90;;;;;;5062031;28;19928;-81
2021/06/25 12:02:20;;;;;;;;;;;25.30;92.30;;;;;;5065818;28;19940;-81
2021/06/25 12:04:47;;;;;;;;;;;25.00;93.90;;;;;;5062838;28;19933;-81
2021/06/25 12:07:14;;;;;;;;;;;24.90;93.60;;;;;;5062732;28;20583;-81
2021/06/25 12:09:41;;;;;;;;;;;24.60;93.30;;;;;;5063281;28;19929;-81
2021/06/25 12:12:10;;;;;;;;;;;24.40;93.80;;;;;;5063779;28;19928;-81
2021/06/25 12:14:44;;;;;;;;;;;24.20;94.70;;;;;;5059921;28;20647;-81
2021/06/25 12:17:11;;;;;;;;;;;24.10;94.40;;;;;;5061552;28;19929;-81
2021/06/25 12:19:38;;;;;;;;;;;24.10;94.20;;;;;;5068784;28;19939;-81
2021/06/25 12:22:06;;;;;;;;;;;23.90;94.40;;;;;;5063204;28;19950;-81
2021/06/25 12:24:49;;;;;;;;;;;23.90;95.40;;;;;;5069803;28;19928;-81
2021/06/25 12:27:16;;;;;;;;;;;23.80;95.20;;;;;;5063879;28;20334;-81
2021/06/25 12:29:44;;;;;;;;;;;23.80;96.00;;;;;;5069195;28;19938;-81
2021/06/25 12:32:18;;;;;;;;;;;23.80;95.00;;;;;;5064369;28;20366;-81
2021/06/25 12:34:45;;;;;;;;;;;23.70;96.00;;;;;;5073266;28;19984;-81
2021/06/25 12:37:12;;;;;;;;;;;23.70;95.30;;;;;;5062109;28;19942;-81
2021/06/25 12:39:43;;;;;;;;;;;23.80;95.40;;;;;;5070790;28;19935;-81
2021/06/25 12:42:11;;;;;;;;;;;24.00;95.90;;;;;;5061607;28;19932;-81
2021/06/25 12:44:41;;;;;;;;;;;24.40;96.20;;;;;;5067655;28;19933;-80
2021/06/25 12:47:08;;;;;;;;;;;24.90;95.60;;;;;;5080061;28;19929;-81
2021/06/25 12:49:35;;;;;;;;;;;25.30;94.00;;;;;;5063423;28;19928;-81
2021/06/25 12:52:18;;;;;;;;;;;25.40;93.60;;;;;;5063079;28;19933;-80
2021/06/25 12:54:47;;;;;;;;;;;25.20;93.40;;;;;;5080887;28;20729;-81
2021/06/25 12:57:14;;;;;;;;;;;24.90;94.40;;;;;;5052670;28;20051;-80
2021/06/25 12:59:41;;;;;;;;;;;24.80;94.40;;;;;;5063504;28;20306;-81
2021/06/25 13:02:08;;;;;;;;;;;24.70;94.40;;;;;;5061667;28;20348;-80
2021/06/25 13:04:34;;;;;;;;;;;24.60;94.50;;;;;;5063080;28;19995;-81
2021/06/25 13:07:03;;;;;;;;;;;24.30;94.90;;;;;;5063330;28;19919;-80
2021/06/25 13:09:38;;;;;;;;;;;24.20;95.10;;;;;;5064658;28;19931;-81
2021/06/25 13:12:15;;;;;;;;;;;24.00;95.10;;;;;;5062940;28;19951;-81
2021/06/25 13:14:43;;;;;;;;;;;23.80;95.40;;;;;;5062526;28;19999;-81
2021/06/25 13:17:10;;;;;;;;;;;23.80;95.60;;;;;;5060408;28;19939;-80
2021/06/25 13:19:45;;;;;;;;;;;23.80;96.10;;;;;;5065677;28;19932;-81
2021/06/25 13:22:21;;;;;;;;;;;23.90;95.90;;;;;;5065234;28;19958;-81
2021/06/25 13:24:53;;;;;;;;;;;23.90;96.10;;;;;;5061032;28;20067;-80
2021/06/25 13:27:19;;;;;;;;;;;23.80;95.60;;;;;;5059901;28;19935;-80
2021/06/25 13:29:47;;;;;;;;;;;23.60;96.00;;;;;;5063114;28;20769;-81
2021/06/25 13:32:21;;;;;;;;;;;23.50;96.30;;;;;;5069387;28;19928;-80
2021/06/25 13:34:55;;;;;;;;;;;23.30;96.50;;;;;;5062345;28;20326;-80
2021/06/25 13:37:42;;;;;;;;;;;23.20;97.80;;;;;;5061831;28;19960;-80
2021/06/25 13:40:10;;;;;;;;;;;23.10;96.90;;;;;;5064082;28;20013;-81
2021/06/25 13:42:37;;;;;;;;;;;22.90;97.60;;;;;;5062352;28;20456;-80
2021/06/25 13:45:13;;;;;;;;;;;22.60;97.70;;;;;;5066503;28;19929;-81
2021/06/25 13:47:40;;;;;;;;;;;22.30;98.10;;;;;;5061818;28;20368;-81
2021/06/25 13:50:08;;;;;;;;;;;22.10;99.20;;;;;;5051065;28;20283;-80
2021/06/25 13:52:37;;;;;;;;;;;21.90;99.40;;;;;;5063068;28;19939;-80
2021/06/25 13:55:16;;;;;;;;;;;21.80;99.80;;;;;;5061176;28;24379;-80
2021/06/25 13:58:05;;;;;;;;;;;21.70;99.90;;;;;;5064073;28;19938;-80
2021/06/25 14:00:35;;;;;;;;;;;21.70;99.90;;;;;;5064953;28;19928;-80
2021/06/25 14:03:05;;;;;;;;;;;21.60;99.90;;;;;;5064275;28;19932;-80
2021/06/25 14:05:32;;;;;;;;;;;21.50;99.90;;;;;;5067573;28;19932;-80
2021/06/25 14:08:00;;;;;;;;;;;21.50;99.90;;;;;;5066426;28;19992;-80
2021/06/25 14:10:27;;;;;;;;;;;21.50;99.90;;;;;;5070882;28;20023;-80
2021/06/25 14:12:55;;;;;;;;;;;21.40;99.90;;;;;;5064762;28;19932;-80
2021/06/25 14:15:27;;;;;;;;;;;21.40;99.90;;;;;;5068571;28;20378;-80
2021/06/25 14:18:00;;;;;;;;;;;21.30;99.90;;;;;;5063668;28;19935;-80
2021/06/25 14:20:27;;;;;;;;;;;21.20;99.90;;;;;;5066433;28;19932;-80
2021/06/25 14:22:54;;;;;;;;;;;21.10;99.90;;;;;;5065456;28;19946;-80
2021/06/25 14:25:21;;;;;;;;;;;21.20;99.90;;;;;;5065115;28;19928;-80
2021/06/25 14:27:48;;;;;;;;;;;21.20;99.90;;;;;;5064858;28;19939;-80
2021/06/25 14:30:14;;;;;;;;;;;21.10;99.90;;;;;;5065230;28;19929;-80
2021/06/25 14:32:42;;;;;;;;;;;21.10;99.90;;;;;;5063604;28;19932;-79
2021/06/25 14:35:11;;;;;;;;;;;21.00;99.90;;;;;;5066623;28;19951;-80
2021/06/25 14:37:38;;;;;;;;;;;20.90;99.90;;;;;;5070921;28;20300;-80
2021/06/25 14:40:05;;;;;;;;;;;20.90;99.90;;;;;;5056345;28;19928;-80